LEJR Información de aeropuertos

Información de pistas
Pista 02 Longitud 7546 ft Ancho 148 ft
Elevación 68 ft Umbral 0 ft Rumbo 21
Pista 20 Longitud 7546 ft Ancho 148 ft
Elevación 93 ft Umbral 0 ft Rumbo 201
Frecuencias
Tipo APP Nombre APP Frequencia 128.5 MHZ
Tipo GND Nombre GND Frequencia 121.6 MHZ
Tipo TWR Nombre TWR Frequencia 118.55 MHZ
Radioayudas
Tipo NDB Nombre Jerez Frequencia 433 KHZ
Tipo VOR-DME Nombre Jerez Frequencia 113000 KHZ
Información meteorológica y NOTAM
ADDS - METARS form results

(2158 UTC 10 August 2020)
Data provider http://aviationweather.gov/metar/data/
 
METAR text: LEJR 102130Z 22007KT 9999 FEW021 25/21 Q1011
Conditions at: LEJR (JEREZ (CIV/MIL) , ES) observed 2130 UTC 10 August 2020
Temperature: 25.0°C (77°F)
Dewpoint: 21.0°C (70°F) [RH = 79%]
Pressure (altimeter): 29.85 inches Hg (1011.0 mb)
Winds: from the SW (220 degrees) at 8 MPH (7 knots; 3.6 m/s)
Visibility: 6 or more miles (10+ km)
Ceiling: at least 12,000 feet AGL
Clouds: few clouds at 2100 feet AGL
Weather: no significant weather observed at this time

METAR text: LEJR 102100Z 19008KT CAVOK 25/21 Q1012
Conditions at: LEJR (JEREZ (CIV/MIL) , ES) observed 2100 UTC 10 August 2020
Temperature: 25.0°C (77°F)
Dewpoint: 21.0°C (70°F) [RH = 79%]
Pressure (altimeter): 29.88 inches Hg (1012.0 mb)
Winds: from the S (190 degrees) at 9 MPH (8 knots; 4.1 m/s)
Visibility: 6 or more miles (10+ km)
Ceiling: ceiling and visibility are OK
Clouds: unknown
Weather: no significant weather observed at this time

Forecast for: LEJR (JEREZ (CIV/MIL) , ES)
Text: TAF LEJR 101700Z 1018/1118 24010KT CAVOK TX31/1114Z TN22/1105Z
Forecast period: 1800 to 2100 UTC 10 August 2020
Forecast type: FROM: standard forecast or significant change
Winds: from the WSW (240 degrees) at 12 MPH (10 knots; 5.1 m/s)
Visibility: 6 or more miles (10+ km)
Ceiling: unknown
Clouds: missing
Weather: no significant weather forecast for this period
Text: BECMG 1021/1024 16005KT
Forecast period: 2100 UTC 10 August 2020 to 0900 UTC 11 August 2020
Forecast type: BECOMING: Conditions expected to become as follows by 0000 UTC 11 August 2020
Winds: from the SSE (160 degrees) at 6 MPH (5 knots; 2.6 m/s)
Visibility: 6 or more miles (10+ km)
Ceiling: unknown
Clouds: missing
Weather: no significant weather forecast for this period
Text: BECMG 1109/1112 23010KT
Forecast period: 0900 to 1800 UTC 11 August 2020
Forecast type: BECOMING: Conditions expected to become as follows by 1200 UTC 11 August 2020
Winds: from the SW (230 degrees) at 12 MPH (10 knots; 5.1 m/s)
Visibility: 6 or more miles (10+ km)
Ceiling: unknown
Clouds: missing
Weather: no significant weather forecast for this period